Time;durP1;ratioP1;P1;durP2;ratioP2;P2;SDS_P1;SDS_P2;PMS_P1;PMS_P2;Temp;Humidity;BMP_temperature;BMP_pressure;BME280_temperature;BME280_humidity;BME280_pressure;Samples;Min_cycle;Max_cycle;Signal;HPM_P1;HPM_P2
2021/01/14 00:01:36;;;;;;;46.03;20.93;;;0.90;99.90;;;;;;4364180;32;20159;-74
2021/01/14 00:04:02;;;;;;;48.70;22.17;;;0.90;99.90;;;;;;4365624;32;20148;-74
2021/01/14 00:06:29;;;;;;;45.23;21.00;;;0.90;99.90;;;;;;4364180;32;20156;-74
2021/01/14 00:08:55;;;;;;;43.70;20.93;;;1.00;99.90;;;;;;4364242;32;20156;-74
2021/01/14 00:11:21;;;;;;;44.30;21.70;;;1.00;99.90;;;;;;4364198;32;20380;-74
2021/01/14 00:13:48;;;;;;;44.80;21.63;;;1.00;99.90;;;;;;4364354;32;20328;-74
2021/01/14 00:16:14;;;;;;;47.37;21.23;;;0.90;99.90;;;;;;4364334;33;20141;-74
2021/01/14 00:18:42;;;;;;;52.93;22.40;;;0.70;99.90;;;;;;4364178;33;20529;-74
2021/01/14 00:21:08;;;;;;;52.03;22.60;;;0.80;99.90;;;;;;4363953;33;20479;-74
2021/01/14 00:23:34;;;;;;;51.87;23.13;;;0.80;99.90;;;;;;4365489;33;20405;-74
2021/01/14 00:26:01;;;;;;;52.57;23.93;;;0.80;99.90;;;;;;4364101;33;20222;-74
2021/01/14 00:28:27;;;;;;;55.67;24.20;;;0.70;99.90;;;;;;4364037;33;20356;-74
2021/01/14 00:30:54;;;;;;;57.23;24.07;;;0.70;99.90;;;;;;4365436;33;20391;-74
2021/01/14 00:33:20;;;;;;;51.10;23.00;;;0.60;99.90;;;;;;4364871;33;20529;-74
2021/01/14 00:35:47;;;;;;;56.30;24.10;;;0.60;99.90;;;;;;4365365;33;20132;-74
2021/01/14 00:38:13;;;;;;;53.93;23.90;;;0.60;99.90;;;;;;4364279;33;20182;-74
2021/01/14 00:40:40;;;;;;;57.03;25.30;;;0.60;99.90;;;;;;4364146;33;20170;-74
2021/01/14 00:43:12;;;;;;;53.43;24.17;;;0.70;99.90;;;;;;4364166;33;20161;-74
2021/01/14 00:45:39;;;;;;;51.23;24.53;;;0.70;99.90;;;;;;4365399;33;20166;-74
2021/01/14 00:48:05;;;;;;;53.53;23.80;;;0.80;99.90;;;;;;4365358;33;20199;-74
2021/01/14 00:50:32;;;;;;;54.07;24.63;;;0.80;99.90;;;;;;4363953;33;20137;-74
2021/01/14 00:52:58;;;;;;;57.20;24.43;;;0.80;99.90;;;;;;4363662;33;20175;-74
2021/01/14 00:55:25;;;;;;;55.10;25.17;;;0.90;99.90;;;;;;4364473;33;20128;-74
2021/01/14 00:57:51;;;;;;;56.97;24.37;;;0.90;99.90;;;;;;4365198;33;20239;-74
2021/01/14 01:00:20;;;;;;;57.63;23.97;;;0.90;99.90;;;;;;4365159;33;20489;-74
2021/01/14 01:02:48;;;;;;;53.90;24.53;;;0.90;99.90;;;;;;4365217;33;20167;-74
2021/01/14 01:05:16;;;;;;;52.20;24.60;;;0.90;99.90;;;;;;4363791;33;20141;-74
2021/01/14 01:07:57;;;;;;;51.63;24.70;;;0.90;99.90;;;;;;4363814;33;20183;-74
2021/01/14 01:10:25;;;;;;;50.30;23.63;;;0.90;99.90;;;;;;4363757;33;20204;-74
2021/01/14 01:12:56;;;;;;;53.23;24.03;;;0.90;99.90;;;;;;4363928;33;20168;-74
2021/01/14 01:15:23;;;;;;;51.80;23.40;;;0.90;99.90;;;;;;4363784;33;20211;-74
2021/01/14 01:17:50;;;;;;;52.00;23.97;;;0.90;99.90;;;;;;4365701;32;20163;-74
2021/01/14 01:20:16;;;;;;;49.33;24.57;;;1.00;99.90;;;;;;4368306;32;20236;-74
2021/01/14 01:22:43;;;;;;;50.13;23.47;;;0.90;99.90;;;;;;4366507;32;20132;-74
2021/01/14 01:25:09;;;;;;;58.17;24.70;;;0.90;99.90;;;;;;4366444;32;20133;-74
2021/01/14 01:27:37;;;;;;;61.13;26.67;;;0.90;99.90;;;;;;4367928;32;20145;-74
2021/01/14 01:30:06;;;;;;;55.87;25.97;;;0.90;99.90;;;;;;4366221;32;20159;-74
2021/01/14 01:32:32;;;;;;;57.27;25.47;;;0.90;99.90;;;;;;4366515;32;20170;-74
2021/01/14 01:34:59;;;;;;;56.97;25.90;;;0.90;99.90;;;;;;4366189;32;20136;-74
2021/01/14 01:37:25;;;;;;;62.03;27.20;;;0.90;99.90;;;;;;4367603;32;20140;-74
2021/01/14 01:39:52;;;;;;;56.60;25.80;;;0.90;99.90;;;;;;4366217;32;20140;-74
2021/01/14 01:42:18;;;;;;;56.53;26.03;;;0.80;99.90;;;;;;4366300;32;20386;-74
2021/01/14 01:44:44;;;;;;;58.17;25.70;;;0.90;99.90;;;;;;4366166;32;20387;-74
2021/01/14 01:47:11;;;;;;;58.37;25.93;;;0.80;99.90;;;;;;4366150;32;20175;-74
2021/01/14 01:49:39;;;;;;;59.73;27.27;;;0.80;99.90;;;;;;4367442;32;20140;-73
2021/01/14 01:52:07;;;;;;;56.10;26.07;;;0.80;99.90;;;;;;4365857;32;20140;-73
2021/01/14 01:54:34;;;;;;;59.43;27.60;;;0.80;99.90;;;;;;4366195;32;20144;-73
2021/01/14 01:57:03;;;;;;;54.93;26.40;;;0.80;99.90;;;;;;4365922;32;20171;-73
2021/01/14 01:59:33;;;;;;;58.60;26.60;;;0.90;99.90;;;;;;4365780;32;20141;-73
2021/01/14 02:02:26;;;;;;;57.83;25.83;;;0.90;99.90;;;;;;4366962;32;20168;-73
2021/01/14 02:04:56;;;;;;;57.93;25.90;;;0.90;99.90;;;;;;4365801;32;20194;-73
2021/01/14 02:07:58;;;;;;;56.57;26.67;;;0.90;99.90;;;;;;4366093;32;20159;-73
2021/01/14 02:10:36;;;;;;;59.87;26.60;;;0.80;99.90;;;;;;4319853;33;20165;-73
2021/01/14 02:13:02;;;;;;;59.07;25.77;;;0.90;99.90;;;;;;4319450;33;20196;-73
2021/01/14 02:15:31;;;;;;;57.73;25.57;;;0.90;99.90;;;;;;4319475;33;20225;-73
2021/01/14 02:17:59;;;;;;;54.97;25.07;;;0.90;99.90;;;;;;4319185;33;20220;-73
2021/01/14 02:20:26;;;;;;;54.03;25.03;;;0.90;99.90;;;;;;4319288;33;20171;-73
2021/01/14 02:22:58;;;;;;;60.73;26.53;;;0.90;99.90;;;;;;4319373;33;20142;-73
2021/01/14 02:25:29;;;;;;;51.37;24.57;;;0.80;99.90;;;;;;4319587;33;20133;-73
2021/01/14 02:27:57;;;;;;;57.63;26.97;;;0.80;99.90;;;;;;4320439;33;20209;-73
2021/01/14 02:30:24;;;;;;;56.83;26.07;;;0.80;99.90;;;;;;4319123;33;20159;-73
2021/01/14 02:32:50;;;;;;;53.07;25.30;;;0.80;99.90;;;;;;4319020;33;20545;-73
2021/01/14 02:35:17;;;;;;;55.63;25.53;;;0.80;99.90;;;;;;4320524;33;20284;-73
2021/01/14 02:37:43;;;;;;;53.20;25.60;;;0.80;99.90;;;;;;4318905;33;20145;-73
2021/01/14 02:40:10;;;;;;;63.17;27.57;;;0.80;99.90;;;;;;4319552;33;20156;-73
2021/01/14 02:42:37;;;;;;;62.70;26.90;;;0.80;99.90;;;;;;4318718;33;20173;-73
2021/01/14 02:45:04;;;;;;;57.23;26.87;;;0.80;99.90;;;;;;4323179;33;20149;-73
2021/01/14 02:47:32;;;;;;;59.77;27.23;;;0.80;99.90;;;;;;4365233;32;20495;-73
2021/01/14 02:50:05;;;;;;;64.73;28.63;;;0.80;99.90;;;;;;4366569;32;20162;-73
2021/01/14 02:52:35;;;;;;;59.33;27.23;;;0.80;99.90;;;;;;4365058;32;20151;-73
2021/01/14 02:55:04;;;;;;;58.73;27.67;;;0.80;99.90;;;;;;4366040;32;20239;-73
2021/01/14 02:57:31;;;;;;;61.00;26.60;;;0.70;99.90;;;;;;4366534;32;20219;-73
2021/01/14 03:00:00;;;;;;;64.97;27.17;;;0.70;99.90;;;;;;4365057;32;20485;-73
2021/01/14 03:02:28;;;;;;;59.13;26.53;;;0.70;99.90;;;;;;4366291;32;20151;-73
2021/01/14 03:04:55;;;;;;;67.80;28.47;;;0.70;99.90;;;;;;4364431;32;20148;-73
2021/01/14 03:07:21;;;;;;;66.23;27.87;;;0.70;99.90;;;;;;4365525;32;20206;-73
2021/01/14 03:09:48;;;;;;;64.77;27.33;;;0.70;99.90;;;;;;4364846;32;20436;-73
2021/01/14 03:12:14;;;;;;;61.90;27.83;;;0.80;99.90;;;;;;4366295;32;20166;-73
2021/01/14 03:14:41;;;;;;;63.53;27.60;;;0.80;99.90;;;;;;4364741;32;20181;-73
2021/01/14 03:17:07;;;;;;;61.57;27.90;;;0.80;99.90;;;;;;4366171;32;20178;-73
2021/01/14 03:19:34;;;;;;;60.27;26.70;;;0.80;99.90;;;;;;4364751;32;20157;-73
2021/01/14 03:22:00;;;;;;;59.37;27.30;;;0.80;99.90;;;;;;4364613;32;20165;-73
2021/01/14 03:24:29;;;;;;;61.37;27.10;;;0.80;99.90;;;;;;4366147;32;20486;-73
2021/01/14 03:26:55;;;;;;;57.87;26.27;;;0.80;99.90;;;;;;4351954;33;20164;-73
2021/01/14 03:29:21;;;;;;;61.27;28.23;;;0.80;99.90;;;;;;4366081;32;20233;-73
2021/01/14 03:31:48;;;;;;;59.77;26.40;;;0.80;99.90;;;;;;4364602;32;20132;-74
2021/01/14 03:34:15;;;;;;;58.00;26.97;;;0.80;99.90;;;;;;4363989;32;20202;-73
2021/01/14 03:36:56;;;;;;;60.57;28.23;;;0.80;99.90;;;;;;4364199;32;20192;-73
2021/01/14 03:39:27;;;;;;;65.10;27.23;;;0.80;99.90;;;;;;4363938;32;20162;-73
2021/01/14 03:41:55;;;;;;;66.70;29.13;;;0.80;99.90;;;;;;4362959;32;20164;-73
2021/01/14 03:44:22;;;;;;;63.30;27.87;;;0.80;99.90;;;;;;4351176;33;20580;-74
2021/01/14 03:46:49;;;;;;;69.23;28.10;;;0.80;99.90;;;;;;4365850;32;20186;-73
2021/01/14 03:49:17;;;;;;;63.00;28.57;;;0.80;99.90;;;;;;4363836;32;20132;-73
2021/01/14 03:51:48;;;;;;;65.70;29.47;;;0.80;99.90;;;;;;4365703;32;20550;-73
2021/01/14 03:54:21;;;;;;;66.03;29.67;;;0.70;99.90;;;;;;4364134;32;20159;-73
2021/01/14 03:56:48;;;;;;;63.60;29.47;;;0.70;99.90;;;;;;4366229;32;20148;-73
2021/01/14 03:59:14;;;;;;;66.13;29.03;;;0.70;99.90;;;;;;4351078;33;20159;-73
2021/01/14 04:01:41;;;;;;;63.03;28.10;;;0.70;99.90;;;;;;4365493;32;20167;-73
2021/01/14 04:04:07;;;;;;;64.83;29.93;;;0.70;99.90;;;;;;4365665;32;20152;-73
2021/01/14 04:06:35;;;;;;;69.47;29.67;;;0.70;99.90;;;;;;4365621;32;20140;-73
2021/01/14 04:09:06;;;;;;;64.13;28.87;;;0.60;99.90;;;;;;4365371;32;20176;-73
2021/01/14 04:11:33;;;;;;;71.17;31.27;;;0.60;99.90;;;;;;4364287;32;20526;-73
2021/01/14 04:13:59;;;;;;;66.27;29.37;;;0.70;99.90;;;;;;4365654;32;20160;-73
2021/01/14 04:16:26;;;;;;;65.57;29.97;;;0.70;99.90;;;;;;4365585;32;20152;-73
2021/01/14 04:18:52;;;;;;;68.93;29.53;;;0.70;99.90;;;;;;4364138;32;20160;-73
2021/01/14 04:21:19;;;;;;;69.23;30.30;;;0.60;99.90;;;;;;4363953;32;20246;-73
2021/01/14 04:23:46;;;;;;;66.40;30.10;;;0.60;99.90;;;;;;4365522;33;20186;-74
2021/01/14 04:26:12;;;;;;;69.17;30.67;;;0.70;99.90;;;;;;4364124;33;20194;-74
2021/01/14 04:28:40;;;;;;;73.30;30.63;;;0.60;99.90;;;;;;4364974;32;20174;-74
2021/01/14 04:31:06;;;;;;;72.47;30.23;;;0.70;99.90;;;;;;4364051;33;20204;-74
2021/01/14 04:33:33;;;;;;;64.17;29.27;;;0.70;99.90;;;;;;4363500;32;20424;-74
2021/01/14 04:36:00;;;;;;;70.00;29.70;;;0.70;99.90;;;;;;4363953;32;20152;-73
2021/01/14 04:38:28;;;;;;;72.10;29.20;;;0.70;99.90;;;;;;4365418;33;20140;-72
2021/01/14 04:40:57;;;;;;;71.30;30.43;;;0.70;99.90;;;;;;4363680;32;20163;-74
2021/01/14 04:43:25;;;;;;;66.20;28.90;;;0.70;99.90;;;;;;4365359;32;20451;-73
2021/01/14 04:46:04;;;;;;;65.17;28.40;;;0.70;99.90;;;;;;4365607;32;20221;-72
2021/01/14 04:48:46;;;;;;;59.87;27.37;;;0.70;99.90;;;;;;4365601;33;20152;-72
2021/01/14 04:51:17;;;;;;;62.23;27.57;;;0.70;99.90;;;;;;4365613;32;20204;-72
2021/01/14 04:53:46;;;;;;;60.90;27.77;;;0.70;99.90;;;;;;4366682;32;20190;-72
2021/01/14 04:56:14;;;;;;;64.13;27.60;;;0.70;99.90;;;;;;4368274;32;20390;-72
2021/01/14 04:58:42;;;;;;;61.73;27.67;;;0.70;99.90;;;;;;4368149;32;20395;-72
2021/01/14 05:01:10;;;;;;;69.50;29.10;;;0.70;99.90;;;;;;4367894;32;20442;-72
2021/01/14 05:03:39;;;;;;;62.10;27.87;;;0.70;99.90;;;;;;4366670;32;20406;-72
2021/01/14 05:06:06;;;;;;;63.03;28.13;;;0.70;99.90;;;;;;4368053;32;20152;-72
2021/01/14 05:08:33;;;;;;;60.27;27.53;;;0.70;99.90;;;;;;4367806;32;20496;-72
2021/01/14 05:11:00;;;;;;;70.40;28.93;;;0.70;99.90;;;;;;4366564;32;20140;-71
2021/01/14 05:13:30;;;;;;;66.67;28.50;;;0.80;99.90;;;;;;4368012;32;20413;-71
2021/01/14 05:15:57;;;;;;;66.77;28.97;;;0.80;99.90;;;;;;4366309;32;20397;-72
2021/01/14 05:18:24;;;;;;;71.37;30.90;;;0.80;99.90;;;;;;4367894;32;20140;-72
2021/01/14 05:20:50;;;;;;;68.23;29.43;;;0.80;99.90;;;;;;4367993;32;20189;-73
2021/01/14 05:23:20;;;;;;;63.67;29.00;;;0.80;99.90;;;;;;4367860;32;20154;-73
2021/01/14 05:25:51;;;;;;;62.60;29.83;;;0.80;99.90;;;;;;4367280;32;20163;-72
2021/01/14 05:28:23;;;;;;;68.60;29.30;;;0.80;99.90;;;;;;4367803;32;20340;-72
2021/01/14 05:30:50;;;;;;;69.17;29.37;;;0.80;99.90;;;;;;4366259;32;20140;-72
2021/01/14 05:33:21;;;;;;;69.77;29.10;;;0.80;99.90;;;;;;4367867;32;20132;-72
2021/01/14 05:35:53;;;;;;;67.77;30.30;;;0.80;99.90;;;;;;4367884;32;20227;-72
2021/01/14 05:38:32;;;;;;;62.87;27.50;;;0.80;99.90;;;;;;4367499;32;20156;-72
2021/01/14 05:41:19;;;;;;;61.30;27.47;;;0.80;99.90;;;;;;4366092;32;20136;-72
2021/01/14 05:43:57;;;;;;;67.90;29.23;;;0.80;99.90;;;;;;4367822;32;20184;-71
2021/01/14 05:46:26;;;;;;;72.07;29.17;;;0.80;99.90;;;;;;4366262;32;20132;-72
2021/01/14 05:48:54;;;;;;;62.97;28.60;;;0.70;99.90;;;;;;4367449;32;20199;-72
2021/01/14 05:51:30;;;;;;;68.80;29.13;;;0.60;99.90;;;;;;4367665;32;20203;-72
2021/01/14 05:54:10;;;;;;;69.50;29.20;;;0.70;99.90;;;;;;4365973;32;20202;-72
2021/01/14 05:56:49;;;;;;;68.07;29.10;;;0.60;99.90;;;;;;4365859;32;20167;-72
2021/01/14 05:59:32;;;;;;;71.03;27.93;;;0.60;99.90;;;;;;4366881;32;20443;-72
2021/01/14 06:02:00;;;;;;;66.17;28.47;;;0.60;99.90;;;;;;4365729;32;20190;-72
2021/01/14 06:04:28;;;;;;;64.23;27.50;;;0.60;99.90;;;;;;4366175;32;20197;-72
2021/01/14 06:06:57;;;;;;;66.13;27.17;;;0.50;99.90;;;;;;4367240;32;20523;-72
2021/01/14 06:09:23;;;;;;;63.47;26.27;;;0.60;99.90;;;;;;4365638;32;20152;-71
2021/01/14 06:12:05;;;;;;;63.13;26.10;;;0.50;99.90;;;;;;4364874;32;20470;-72
2021/01/14 06:14:32;;;;;;;59.37;25.10;;;0.60;99.90;;;;;;4367011;32;20183;-71
2021/01/14 06:17:03;;;;;;;59.90;26.07;;;0.60;99.90;;;;;;4365527;32;20144;-72
2021/01/14 06:19:30;;;;;;;63.40;26.63;;;0.50;99.90;;;;;;4367240;32;20148;-72
2021/01/14 06:21:57;;;;;;;62.63;26.63;;;0.50;99.90;;;;;;4366114;32;20140;-72
2021/01/14 06:24:28;;;;;;;62.47;26.27;;;0.50;99.90;;;;;;4365485;32;20137;-72
2021/01/14 06:27:09;;;;;;;63.23;26.37;;;0.50;99.90;;;;;;4366336;32;20144;-73
2021/01/14 06:29:40;;;;;;;65.20;26.90;;;0.50;99.90;;;;;;4362152;32;20144;-73
2021/01/14 06:32:06;;;;;;;64.83;25.50;;;0.50;99.90;;;;;;4366336;32;20132;-71
2021/01/14 06:34:34;;;;;;;64.53;25.20;;;0.50;99.90;;;;;;4366268;32;20175;-71
2021/01/14 06:37:21;;;;;;;64.53;26.83;;;0.50;99.90;;;;;;4364985;32;20397;-72
2021/01/14 06:39:53;;;;;;;59.67;25.07;;;0.40;99.90;;;;;;4365290;32;20140;-71
2021/01/14 06:42:20;;;;;;;61.53;25.77;;;0.40;99.90;;;;;;4366503;32;20140;-72
2021/01/14 06:44:52;;;;;;;62.10;25.90;;;0.40;99.90;;;;;;4365169;32;20391;-72
2021/01/14 06:47:45;;;;;;;58.53;24.90;;;0.40;99.90;;;;;;4365165;32;20148;-72
2021/01/14 06:50:17;;;;;;;56.50;23.30;;;0.40;99.90;;;;;;4363168;33;20202;-72
2021/01/14 06:52:50;;;;;;;60.77;24.27;;;0.40;99.90;;;;;;4365050;32;20504;-72
2021/01/14 06:55:18;;;;;;;53.13;22.60;;;0.30;99.90;;;;;;4365150;32;20144;-72
2021/01/14 06:57:57;;;;;;;59.47;23.47;;;0.30;99.90;;;;;;4366037;32;20145;-72
2021/01/14 07:00:28;;;;;;;58.90;24.00;;;0.20;99.90;;;;;;4366002;32;20148;-72
2021/01/14 07:03:15;;;;;;;56.60;23.03;;;0.20;99.90;;;;;;4365146;32;20143;-71
2021/01/14 07:05:53;;;;;;;52.00;22.77;;;0.20;99.90;;;;;;4364988;32;20187;-71
2021/01/14 07:08:34;;;;;;;51.97;21.13;;;0.10;99.90;;;;;;4364687;32;20464;-71
2021/01/14 07:11:10;;;;;;;58.77;21.30;;;0.20;99.90;;;;;;4364751;32;20227;-72
2021/01/14 07:13:44;;;;;;;55.70;22.17;;;0.10;99.90;;;;;;4366183;32;20158;-71
2021/01/14 07:16:16;;;;;;;52.23;21.27;;;0.10;99.90;;;;;;4364626;32;20138;-72
2021/01/14 07:18:44;;;;;;;49.93;21.07;;;0.10;99.90;;;;;;4364727;32;20133;-72
2021/01/14 07:21:29;;;;;;;51.77;21.27;;;0.10;99.90;;;;;;4364386;32;20167;-71
2021/01/14 07:24:10;;;;;;;53.87;21.33;;;0.20;99.90;;;;;;4364712;32;20163;-72
2021/01/14 07:26:43;;;;;;;56.90;22.47;;;0.20;99.90;;;;;;4366117;32;20159;-72
2021/01/14 07:29:11;;;;;;;50.30;21.90;;;0.20;99.90;;;;;;4364660;32;20197;-72
2021/01/14 07:31:49;;;;;;;52.93;22.07;;;0.30;99.90;;;;;;4364463;32;20136;-72
2021/01/14 07:34:40;;;;;;;52.20;21.43;;;0.30;99.90;;;;;;4365196;32;20503;-71
2021/01/14 07:37:12;;;;;;;54.20;21.47;;;0.40;99.90;;;;;;4365094;32;20249;-71
2021/01/14 07:39:44;;;;;;;46.70;20.13;;;0.40;99.90;;;;;;4365534;32;20255;-71
2021/01/14 07:42:30;;;;;;;48.63;20.17;;;0.30;99.90;;;;;;4363367;32;20160;-71
2021/01/14 07:45:20;;;;;;;49.13;20.00;;;0.30;99.90;;;;;;4364440;32;20186;-71
2021/01/14 07:47:47;;;;;;;51.77;20.90;;;0.40;99.90;;;;;;4365884;32;20182;-71
2021/01/14 07:50:27;;;;;;;47.23;20.43;;;0.40;99.90;;;;;;4364538;32;20144;-75
2021/01/14 07:52:56;;;;;;;53.70;21.50;;;0.60;99.90;;;;;;4363701;32;20148;-74
2021/01/14 07:55:32;;;;;;;51.13;20.27;;;0.60;99.90;;;;;;4364209;32;20159;-73
2021/01/14 07:58:22;;;;;;;53.13;20.20;;;0.60;99.90;;;;;;4364508;32;20190;-74
2021/01/14 08:01:09;;;;;;;49.37;19.47;;;0.70;99.90;;;;;;4363657;32;20509;-74
2021/01/14 08:03:40;;;;;;;45.53;20.03;;;0.80;99.90;;;;;;4364284;32;20133;-74
2021/01/14 08:06:35;;;;;;;48.40;20.07;;;0.80;99.90;;;;;;4365355;32;20205;-74
2021/01/14 08:09:06;;;;;;;45.00;18.97;;;0.80;99.90;;;;;;4365894;32;20213;-73
2021/01/14 08:11:45;;;;;;;46.73;19.70;;;0.70;99.90;;;;;;4364393;32;20246;-74
2021/01/14 08:14:21;;;;;;;46.87;18.83;;;0.80;99.90;;;;;;4365649;32;20468;-74
2021/01/14 08:16:55;;;;;;;50.57;19.80;;;0.80;99.90;;;;;;4365754;32;20190;-74
2021/01/14 08:19:29;;;;;;;46.47;19.40;;;0.80;99.90;;;;;;4364012;33;20293;-76
2021/01/14 08:21:58;;;;;;;43.93;18.97;;;0.80;99.90;;;;;;4364016;32;20198;-76
2021/01/14 08:24:38;;;;;;;46.20;19.07;;;0.90;99.90;;;;;;4364044;33;20159;-76
2021/01/14 08:27:13;;;;;;;48.07;19.53;;;0.90;99.90;;;;;;4365545;32;20215;-75
2021/01/14 08:29:53;;;;;;;49.23;19.83;;;0.80;99.90;;;;;;4368209;32;20243;-73
2021/01/14 08:32:36;;;;;;;44.60;18.93;;;0.90;99.90;;;;;;4362381;32;20185;-74
2021/01/14 08:35:28;;;;;;;47.73;18.70;;;0.90;99.90;;;;;;4358455;32;20148;-75
2021/01/14 08:38:11;;;;;;;44.87;19.43;;;0.80;99.90;;;;;;4362537;33;20198;-75
2021/01/14 08:40:40;;;;;;;48.50;19.80;;;0.60;99.90;;;;;;4340745;33;20409;-74
2021/01/14 08:43:09;;;;;;;51.63;19.30;;;0.30;99.90;;;;;;4367772;32;20155;-73
2021/01/14 08:45:47;;;;;;;45.20;18.07;;;0.40;99.90;;;;;;4357559;32;20211;-72
2021/01/14 08:48:26;;;;;;;46.23;17.53;;;0.30;99.90;;;;;;4363147;33;20211;-73
2021/01/14 08:50:56;;;;;;;46.93;18.90;;;0.40;99.90;;;;;;4363994;32;20170;-73
2021/01/14 08:53:26;;;;;;;48.27;19.73;;;0.50;99.90;;;;;;4354131;32;20200;-74
2021/01/14 08:55:55;;;;;;;42.70;17.33;;;0.50;99.90;;;;;;4364410;32;20244;-74
2021/01/14 08:58:36;;;;;;;42.63;16.77;;;0.50;99.90;;;;;;4364539;32;20614;-75
2021/01/14 09:01:05;;;;;;;40.67;16.07;;;0.40;99.90;;;;;;4363962;32;20140;-75
2021/01/14 09:03:41;;;;;;;43.93;16.20;;;0.30;99.90;;;;;;4359874;32;20434;-77
2021/01/14 09:06:08;;;;;;;39.80;16.20;;;0.40;99.90;;;;;;4354753;32;20164;-74
2021/01/14 09:08:34;;;;;;;46.10;17.63;;;0.50;99.90;;;;;;4354121;32;20213;-71
2021/01/14 09:11:01;;;;;;;39.67;16.53;;;0.60;99.90;;;;;;4362695;32;20148;-73
2021/01/14 09:13:29;;;;;;;46.47;17.43;;;0.70;99.90;;;;;;4357795;33;20231;-73
2021/01/14 09:16:16;;;;;;;42.67;17.43;;;0.80;99.90;;;;;;4358201;32;20399;-77
2021/01/14 09:18:44;;;;;;;41.87;16.40;;;0.80;99.90;;;;;;4353037;32;20171;-75
2021/01/14 09:21:13;;;;;;;46.23;18.30;;;0.80;99.90;;;;;;4361476;32;20152;-74
2021/01/14 09:23:46;;;;;;;41.27;16.77;;;0.90;99.90;;;;;;4360834;33;20405;-75
2021/01/14 09:26:28;;;;;;;35.43;16.17;;;0.80;99.90;;;;;;4361330;32;20153;-73
2021/01/14 09:28:59;;;;;;;36.70;16.73;;;0.90;99.90;;;;;;4354618;33;20156;-74
2021/01/14 09:31:33;;;;;;;38.77;15.67;;;0.90;99.90;;;;;;4359146;32;20140;-75
2021/01/14 09:34:02;;;;;;;40.47;15.93;;;0.90;99.90;;;;;;4364387;32;20250;-74
2021/01/14 09:36:29;;;;;;;38.37;15.67;;;0.90;99.90;;;;;;4353326;32;20169;-78
2021/01/14 09:38:55;;;;;;;36.30;15.57;;;0.80;99.90;;;;;;4358959;32;20140;-75
2021/01/14 09:41:30;;;;;;;37.40;15.03;;;0.80;99.90;;;;;;4359685;32;20283;-75
2021/01/14 09:44:08;;;;;;;35.70;15.13;;;0.90;99.90;;;;;;4359653;33;20158;-74
2021/01/14 09:46:40;;;;;;;36.97;15.77;;;0.90;99.90;;;;;;4353574;32;20160;-76
2021/01/14 09:49:11;;;;;;;37.50;15.73;;;0.80;99.90;;;;;;4367639;32;20147;-74
2021/01/14 09:51:43;;;;;;;37.40;15.43;;;0.80;99.90;;;;;;4366398;32;20443;-73
2021/01/14 09:54:10;;;;;;;38.63;16.53;;;0.80;99.90;;;;;;4352574;32;20518;-75
2021/01/14 09:56:41;;;;;;;41.93;16.63;;;0.80;99.90;;;;;;4365918;32;20227;-74
2021/01/14 09:59:09;;;;;;;41.90;17.17;;;0.90;99.90;;;;;;4367294;32;20158;-74
2021/01/14 10:01:45;;;;;;;39.87;16.77;;;1.00;99.90;;;;;;4365091;32;20484;-76
2021/01/14 10:04:15;;;;;;;38.53;16.53;;;1.10;99.90;;;;;;4367657;32;20502;-76
2021/01/14 10:06:52;;;;;;;39.43;15.50;;;0.90;99.90;;;;;;4367314;32;20175;-76
2021/01/14 10:09:18;;;;;;;36.07;15.97;;;0.90;99.90;;;;;;4365744;32;20135;-77
2021/01/14 10:11:45;;;;;;;31.73;14.87;;;1.00;99.90;;;;;;4365726;32;20174;-76
2021/01/14 10:14:17;;;;;;;37.70;15.27;;;0.90;99.90;;;;;;4365543;32;20194;-75
2021/01/14 10:16:44;;;;;;;33.47;13.90;;;1.00;99.90;;;;;;4365740;32;20133;-76
2021/01/14 10:19:18;;;;;;;30.53;13.67;;;1.00;99.90;;;;;;4365488;32;20463;-77
2021/01/14 10:21:49;;;;;;;35.07;14.53;;;1.10;99.90;;;;;;4366979;32;20218;-77
2021/01/14 10:24:27;;;;;;;31.37;13.47;;;1.20;99.90;;;;;;4365848;32;20133;-82
2021/01/14 10:26:54;;;;;;;33.33;13.40;;;1.30;99.90;;;;;;4365560;32;20418;-77
2021/01/14 10:29:38;;;;;;;32.47;13.87;;;1.30;99.90;;;;;;4365987;32;20137;-77
2021/01/14 10:32:10;;;;;;;31.23;13.67;;;1.30;99.90;;;;;;4365502;32;20145;-76
2021/01/14 10:34:40;;;;;;;28.07;12.40;;;1.40;99.90;;;;;;4365568;32;20136;-76
2021/01/14 10:37:25;;;;;;;30.23;12.63;;;1.40;99.90;;;;;;4367029;32;20389;-77
2021/01/14 10:39:59;;;;;;;28.13;12.07;;;1.30;99.90;;;;;;4365323;32;20144;-76
2021/01/14 10:42:39;;;;;;;27.40;12.03;;;1.30;99.90;;;;;;4366672;32;20381;-76
2021/01/14 10:45:07;;;;;;;32.33;13.13;;;1.20;99.90;;;;;;4365555;32;20156;-76
2021/01/14 10:47:34;;;;;;;29.93;13.07;;;1.30;99.90;;;;;;4365238;32;20128;-76
2021/01/14 10:50:25;;;;;;;28.20;12.93;;;1.40;99.90;;;;;;4363606;32;20132;-75
2021/01/14 10:52:55;;;;;;;28.90;12.77;;;1.40;99.90;;;;;;4365947;32;20160;-76
2021/01/14 10:55:21;;;;;;;29.70;13.30;;;1.50;99.90;;;;;;4364873;32;20524;-72
2021/01/14 10:58:00;;;;;;;31.87;13.63;;;1.50;99.90;;;;;;4365926;32;20140;-71
2021/01/14 11:00:38;;;;;;;27.80;12.87;;;1.60;99.90;;;;;;4365103;32;20211;-71
2021/01/14 11:03:14;;;;;;;29.00;13.40;;;1.50;99.90;;;;;;4364741;32;20139;-72
2021/01/14 11:05:50;;;;;;;28.43;12.93;;;1.30;99.90;;;;;;4366574;32;20537;-74
2021/01/14 11:08:18;;;;;;;30.47;14.30;;;1.10;99.90;;;;;;4364773;32;20148;-74
2021/01/14 11:10:47;;;;;;;30.03;12.83;;;1.10;99.90;;;;;;4364764;32;20416;-73
2021/01/14 11:13:17;;;;;;;29.50;13.33;;;0.90;99.90;;;;;;4364770;32;20156;-74
2021/01/14 11:15:44;;;;;;;31.07;13.90;;;1.00;99.90;;;;;;4364890;32;20392;-74
2021/01/14 11:18:11;;;;;;;28.10;13.33;;;1.00;99.90;;;;;;4365129;32;20134;-73
2021/01/14 11:20:38;;;;;;;28.43;12.43;;;0.90;99.90;;;;;;4366073;32;20242;-73
2021/01/14 11:23:05;;;;;;;28.63;13.23;;;0.90;99.90;;;;;;4364649;32;20144;-73
2021/01/14 11:25:31;;;;;;;24.10;12.10;;;0.70;99.90;;;;;;4364568;32;20158;-76
2021/01/14 11:27:58;;;;;;;23.40;11.17;;;0.70;99.90;;;;;;4364652;32;20551;-74
2021/01/14 11:30:25;;;;;;;26.20;12.27;;;0.70;99.90;;;;;;4366020;32;20162;-74
2021/01/14 11:32:52;;;;;;;22.33;11.90;;;0.70;99.90;;;;;;4363931;32;20496;-74
2021/01/14 11:35:18;;;;;;;25.63;12.20;;;0.60;99.90;;;;;;4365083;32;20208;-73
2021/01/14 11:37:45;;;;;;;23.73;11.60;;;0.70;99.90;;;;;;4365812;32;20156;-73
2021/01/14 11:40:12;;;;;;;21.63;10.60;;;0.80;99.90;;;;;;4365316;32;20246;-73
2021/01/14 11:42:39;;;;;;;20.80;10.47;;;0.80;99.90;;;;;;4364437;32;20151;-73
2021/01/14 11:45:06;;;;;;;19.83;10.53;;;0.80;99.90;;;;;;4365230;32;20145;-73
2021/01/14 11:47:32;;;;;;;20.70;10.40;;;0.60;99.90;;;;;;4364483;32;20237;-73
2021/01/14 11:49:59;;;;;;;21.90;10.80;;;0.60;99.90;;;;;;4364821;32;20143;-73
2021/01/14 11:52:26;;;;;;;18.20;10.00;;;0.50;99.90;;;;;;4364159;32;20137;-73
2021/01/14 11:54:52;;;;;;;21.17;10.73;;;0.40;99.90;;;;;;4365236;32;20191;-72
2021/01/14 11:57:19;;;;;;;20.10;10.43;;;0.40;99.90;;;;;;4365769;32;20455;-79
2021/01/14 11:59:45;;;;;;;21.93;10.97;;;0.40;99.90;;;;;;4364205;32;20132;-73
2021/01/14 12:02:12;;;;;;;22.10;11.27;;;0.30;99.90;;;;;;4364607;32;20187;-73
2021/01/14 12:04:38;;;;;;;24.30;11.37;;;0.20;99.90;;;;;;4364176;32;20195;-74
2021/01/14 12:07:05;;;;;;;24.60;11.80;;;0.10;99.90;;;;;;4363606;32;20132;-71
2021/01/14 12:09:31;;;;;;;24.43;12.40;;;0.10;99.90;;;;;;4364138;32;20392;-74
2021/01/14 12:11:58;;;;;;;27.13;12.47;;;0.00;99.90;;;;;;4364047;32;20470;-75
2021/01/14 12:14:24;;;;;;;25.43;12.80;;;0.00;99.90;;;;;;4364066;32;20144;-74
2021/01/14 12:16:51;;;;;;;26.43;12.73;;;0.00;99.90;;;;;;4364734;32;20163;-73
2021/01/14 12:19:17;;;;;;;28.23;13.77;;;0.00;99.90;;;;;;4364492;32;20132;-73
2021/01/14 12:21:44;;;;;;;34.07;14.10;;;-0.10;99.90;;;;;;4363963;32;20144;-73
2021/01/14 12:24:11;;;;;;;33.27;14.57;;;0.00;99.90;;;;;;4363982;32;20171;-72
2021/01/14 12:26:37;;;;;;;32.97;14.70;;;-0.10;99.90;;;;;;4363968;32;20530;-73
2021/01/14 12:29:04;;;;;;;32.43;14.43;;;-0.20;99.90;;;;;;4365313;32;20132;-74
2021/01/14 12:31:34;;;;;;;31.07;14.33;;;-0.30;99.90;;;;;;4363801;32;20186;-75
2021/01/14 12:34:01;;;;;;;31.93;14.93;;;-0.30;99.90;;;;;;4364219;32;20137;-71
2021/01/14 12:36:32;;;;;;;33.07;15.37;;;-0.20;99.90;;;;;;4363729;32;20140;-72
2021/01/14 12:38:59;;;;;;;30.93;15.03;;;-0.10;99.90;;;;;;4354500;32;20151;-72
2021/01/14 12:41:33;;;;;;;32.77;15.37;;;-0.10;99.90;;;;;;4353020;32;20143;-72
2021/01/14 12:44:02;;;;;;;32.33;15.33;;;-0.20;99.90;;;;;;4349718;33;20158;-73
2021/01/14 12:46:33;;;;;;;28.40;14.30;;;-0.10;99.90;;;;;;4348713;33;20139;-74
2021/01/14 12:49:00;;;;;;;29.50;14.57;;;-0.10;99.90;;;;;;4348864;33;20535;-73
2021/01/14 12:51:27;;;;;;;37.07;15.73;;;-0.10;99.90;;;;;;4348351;33;20145;-71
2021/01/14 12:53:53;;;;;;;31.23;14.80;;;-0.10;99.90;;;;;;4359977;32;20170;-71